FPO26K LIPZ-LJLJ
Flight info
| Callsign | FPO26K |
|---|---|
| Flight time | 0h 30m |
| Altitude | 18000 |
| Route | ROSKA M859 BARPI/N0370F170 |
| Aircraft | B738/M-SDE2E3FGHIRWXY/LB1 |
Departure
| Time | 2026-04-22 18:21 |
|---|---|
| Airport | Venice Marco Polo Airport (LIPZ) |
Arrival
| Time | 2026-04-22 18:52 |
|---|---|
| Airport | Ljubljana Jože Pučnik Airport (LJLJ) |
| Time | Latitude | Longitude | Altitude | Speed | Heading |
|---|---|---|---|---|---|
| 2026-04-22 18:01 | 45.50938 | 12.34356 | 8 ft | 0 kts | 37° |
| 2026-04-22 18:13 | 45.50922 | 12.34337 | 12 ft | 4 kts | 57° |
| 2026-04-22 18:14 | 45.50916 | 12.34305 | 9 ft | 4 kts | 110° |
| 2026-04-22 18:14 | 45.50925 | 12.34284 | 11 ft | 1 kts | 135° |
| 2026-04-22 18:14 | 45.50927 | 12.34281 | 10 ft | 0 kts | 135° |
| 2026-04-22 18:16 | 45.50916 | 12.34297 | 10 ft | 5 kts | 134° |
| 2026-04-22 18:16 | 45.50881 | 12.34348 | 9 ft | 8 kts | 134° |
| 2026-04-22 18:16 | 45.50843 | 12.34413 | 9 ft | 8 kts | 127° |
| 2026-04-22 18:17 | 45.50802 | 12.34469 | 10 ft | 8 kts | 140° |
| 2026-04-22 18:17 | 45.50765 | 12.34530 | 11 ft | 10 kts | 130° |
| 2026-04-22 18:17 | 45.50707 | 12.34627 | 12 ft | 15 kts | 147° |
| 2026-04-22 18:17 | 45.50617 | 12.34634 | 13 ft | 14 kts | 219° |
| 2026-04-22 18:18 | 45.50598 | 12.34506 | 14 ft | 13 kts | 270° |
| 2026-04-22 18:18 | 45.50568 | 12.34392 | 14 ft | 13 kts | 225° |
| 2026-04-22 18:18 | 45.50493 | 12.34342 | 15 ft | 12 kts | 177° |
| 2026-04-22 18:18 | 45.50409 | 12.34350 | 18 ft | 12 kts | 176° |
| 2026-04-22 18:19 | 45.50327 | 12.34354 | 19 ft | 12 kts | 180° |
| 2026-04-22 18:19 | 45.50242 | 12.34289 | 16 ft | 17 kts | 223° |
| 2026-04-22 18:19 | 45.50144 | 12.34163 | 15 ft | 21 kts | 222° |
| 2026-04-22 18:19 | 45.50044 | 12.34104 | 11 ft | 15 kts | 113° |
| 2026-04-22 18:20 | 45.50058 | 12.34244 | 14 ft | 14 kts | 58° |
| 2026-04-22 18:20 | 45.50087 | 12.34291 | 13 ft | 0 kts | 43° |
| 2026-04-22 18:21 | 45.50135 | 12.34350 | 14 ft | 37 kts | 41° |
| 2026-04-22 18:21 | 45.50537 | 12.34867 | 10 ft | 116 kts | 41° |
| 2026-04-22 18:21 | 45.51285 | 12.35834 | 61 ft | 171 kts | 40° |
| 2026-04-22 18:21 | 45.52135 | 12.36900 | 1039 ft | 156 kts | 44° |
| 2026-04-22 18:22 | 45.52904 | 12.38097 | 1649 ft | 178 kts | 49° |
| 2026-04-22 18:22 | 45.53631 | 12.39690 | 2096 ft | 202 kts | 77° |
| 2026-04-22 18:22 | 45.53575 | 12.41686 | 2843 ft | 204 kts | 101° |
| 2026-04-22 18:22 | 45.53352 | 12.43708 | 3547 ft | 208 kts | 98° |
| 2026-04-22 18:23 | 45.53138 | 12.45743 | 4283 ft | 207 kts | 98° |
| 2026-04-22 18:23 | 45.52928 | 12.47771 | 5031 ft | 206 kts | 97° |
| 2026-04-22 18:23 | 45.52720 | 12.49792 | 5738 ft | 205 kts | 97° |
| 2026-04-22 18:24 | 45.52300 | 12.53759 | 7174 ft | 206 kts | 101° |
| 2026-04-22 18:24 | 45.51557 | 12.55636 | 7543 ft | 231 kts | 128° |
| 2026-04-22 18:24 | 45.49195 | 12.59190 | 8341 ft | 259 kts | 129° |
| 2026-04-22 18:25 | 45.47942 | 12.61076 | 8942 ft | 264 kts | 129° |
| 2026-04-22 18:25 | 45.46673 | 12.62998 | 9565 ft | 269 kts | 128° |
| 2026-04-22 18:25 | 45.45373 | 12.64975 | 10142 ft | 276 kts | 128° |
| 2026-04-22 18:26 | 45.42742 | 12.68974 | 11479 ft | 278 kts | 128° |
| 2026-04-22 18:26 | 45.41414 | 12.70994 | 12155 ft | 280 kts | 128° |
| 2026-04-22 18:26 | 45.40081 | 12.73022 | 12845 ft | 282 kts | 129° |
| 2026-04-22 18:26 | 45.38739 | 12.75064 | 13539 ft | 284 kts | 129° |
| 2026-04-22 18:27 | 45.37379 | 12.77131 | 14219 ft | 286 kts | 129° |
| 2026-04-22 18:27 | 45.36008 | 12.79214 | 14819 ft | 291 kts | 129° |
| 2026-04-22 18:27 | 45.34615 | 12.81327 | 15415 ft | 295 kts | 129° |
| 2026-04-22 18:27 | 45.33255 | 12.83525 | 16002 ft | 296 kts | 119° |
| 2026-04-22 18:28 | 45.32538 | 12.86222 | 16534 ft | 295 kts | 93° |
| 2026-04-22 18:28 | 45.32721 | 12.89145 | 16683 ft | 313 kts | 68° |
| 2026-04-22 18:28 | 45.33684 | 12.92023 | 16909 ft | 334 kts | 57° |
| 2026-04-22 18:28 | 45.34918 | 12.94971 | 17154 ft | 357 kts | 55° |
| 2026-04-22 18:29 | 45.36242 | 12.98027 | 17721 ft | 369 kts | 55° |
| 2026-04-22 18:29 | 45.37594 | 13.01167 | 18180 ft | 375 kts | 55° |
| 2026-04-22 18:29 | 45.38972 | 13.04408 | 18178 ft | 390 kts | 56° |
| 2026-04-22 18:29 | 45.40374 | 13.07747 | 18184 ft | 395 kts | 56° |
| 2026-04-22 18:30 | 45.41768 | 13.11103 | 18170 ft | 392 kts | 57° |
| 2026-04-22 18:30 | 45.44530 | 13.17787 | 18174 ft | 392 kts | 57° |
| 2026-04-22 18:30 | 45.45910 | 13.21129 | 18178 ft | 392 kts | 57° |
| 2026-04-22 18:31 | 45.47291 | 13.24475 | 18178 ft | 392 kts | 57° |
| 2026-04-22 18:31 | 45.48672 | 13.27827 | 18178 ft | 392 kts | 57° |
| 2026-04-22 18:31 | 45.50039 | 13.31182 | 18179 ft | 392 kts | 57° |
| 2026-04-22 18:31 | 45.51402 | 13.34558 | 18197 ft | 393 kts | 57° |
| 2026-04-22 18:32 | 45.52762 | 13.37933 | 18191 ft | 393 kts | 57° |
| 2026-04-22 18:32 | 45.54126 | 13.41314 | 18185 ft | 393 kts | 57° |
| 2026-04-22 18:32 | 45.55474 | 13.44643 | 18169 ft | 392 kts | 57° |
| 2026-04-22 18:32 | 45.56858 | 13.47992 | 18184 ft | 391 kts | 54° |
| 2026-04-22 18:33 | 45.58675 | 13.50822 | 18192 ft | 386 kts | 36° |
| 2026-04-22 18:33 | 45.60983 | 13.52727 | 18175 ft | 384 kts | 21° |
| 2026-04-22 18:33 | 45.63552 | 13.53720 | 18192 ft | 383 kts | 11° |
| 2026-04-22 18:33 | 45.66179 | 13.54358 | 18173 ft | 383 kts | 9° |
| 2026-04-22 18:34 | 45.68815 | 13.54950 | 18176 ft | 383 kts | 9° |
| 2026-04-22 18:34 | 45.71452 | 13.55556 | 18182 ft | 383 kts | 9° |
| 2026-04-22 18:34 | 45.74083 | 13.56191 | 18185 ft | 383 kts | 10° |
| 2026-04-22 18:34 | 45.76711 | 13.56846 | 18183 ft | 383 kts | 10° |
| 2026-04-22 18:35 | 45.79338 | 13.57509 | 18185 ft | 383 kts | 10° |
| 2026-04-22 18:35 | 45.81896 | 13.58532 | 18172 ft | 383 kts | 25° |
| 2026-04-22 18:35 | 45.84077 | 13.60716 | 18196 ft | 385 kts | 42° |
| 2026-04-22 18:35 | 45.85786 | 13.63681 | 18169 ft | 389 kts | 56° |
| 2026-04-22 18:36 | 45.86887 | 13.67236 | 18207 ft | 392 kts | 69° |
| 2026-04-22 18:36 | 45.87644 | 13.70905 | 18168 ft | 382 kts | 71° |
| 2026-04-22 18:36 | 45.88339 | 13.74538 | 18174 ft | 372 kts | 71° |
| 2026-04-22 18:36 | 45.89002 | 13.78049 | 17915 ft | 360 kts | 71° |
| 2026-04-22 18:37 | 45.89666 | 13.81513 | 17100 ft | 356 kts | 71° |
| 2026-04-22 18:37 | 45.90329 | 13.84920 | 15984 ft | 353 kts | 71° |
| 2026-04-22 18:37 | 45.90779 | 13.87208 | 15371 ft | 350 kts | 71° |
| 2026-04-22 18:37 | 45.91632 | 13.91535 | 14597 ft | 333 kts | 71° |
| 2026-04-22 18:38 | 45.92259 | 13.94698 | 14029 ft | 325 kts | 71° |
| 2026-04-22 18:38 | 45.92880 | 13.97824 | 13406 ft | 329 kts | 71° |
| 2026-04-22 18:38 | 45.93522 | 14.01049 | 12839 ft | 342 kts | 70° |
| 2026-04-22 18:39 | 45.94819 | 14.07620 | 11664 ft | 338 kts | 70° |
| 2026-04-22 18:39 | 45.95454 | 14.10849 | 11079 ft | 334 kts | 70° |
| 2026-04-22 18:39 | 45.96072 | 14.13999 | 10890 ft | 319 kts | 70° |
| 2026-04-22 18:39 | 45.96657 | 14.16993 | 10733 ft | 305 kts | 70° |
| 2026-04-22 18:40 | 45.97220 | 14.19872 | 10583 ft | 292 kts | 69° |
| 2026-04-22 18:40 | 45.97759 | 14.22630 | 10475 ft | 279 kts | 69° |
| 2026-04-22 18:40 | 45.98272 | 14.25262 | 10391 ft | 269 kts | 69° |
| 2026-04-22 18:40 | 45.98771 | 14.27815 | 10263 ft | 261 kts | 69° |
| 2026-04-22 18:41 | 45.99247 | 14.30256 | 10068 ft | 255 kts | 68° |
| 2026-04-22 18:41 | 45.99729 | 14.32719 | 9628 ft | 257 kts | 69° |
| 2026-04-22 18:41 | 46.00218 | 14.35219 | 9294 ft | 255 kts | 69° |
| 2026-04-22 18:41 | 46.00688 | 14.37636 | 8991 ft | 253 kts | 69° |
| 2026-04-22 18:42 | 46.01160 | 14.40066 | 8705 ft | 251 kts | 70° |
| 2026-04-22 18:42 | 46.01624 | 14.42468 | 8431 ft | 247 kts | 70° |
| 2026-04-22 18:42 | 46.02084 | 14.44838 | 8154 ft | 245 kts | 70° |
| 2026-04-22 18:42 | 46.02540 | 14.47191 | 7870 ft | 243 kts | 70° |
| 2026-04-22 18:43 | 46.02989 | 14.49522 | 7590 ft | 241 kts | 70° |
| 2026-04-22 18:43 | 46.03436 | 14.51838 | 7311 ft | 240 kts | 70° |
| 2026-04-22 18:43 | 46.03882 | 14.54140 | 7023 ft | 238 kts | 70° |
| 2026-04-22 18:43 | 46.04072 | 14.56521 | 6720 ft | 244 kts | 86° |
| 2026-04-22 18:44 | 46.04015 | 14.58945 | 6533 ft | 238 kts | 86° |
| 2026-04-22 18:44 | 46.03985 | 14.61285 | 6406 ft | 230 kts | 85° |
| 2026-04-22 18:44 | 46.03966 | 14.63548 | 6302 ft | 223 kts | 85° |
| 2026-04-22 18:44 | 46.03951 | 14.65742 | 6179 ft | 216 kts | 85° |
| 2026-04-22 18:45 | 46.03938 | 14.67856 | 6099 ft | 207 kts | 85° |
| 2026-04-22 18:45 | 46.03926 | 14.69886 | 6011 ft | 198 kts | 85° |
| 2026-04-22 18:45 | 46.03987 | 14.71800 | 5933 ft | 182 kts | 69° |
| 2026-04-22 18:45 | 46.04598 | 14.73274 | 5820 ft | 170 kts | 44° |
| 2026-04-22 18:46 | 46.05488 | 14.74354 | 5692 ft | 167 kts | 34° |
| 2026-04-22 18:46 | 46.06594 | 14.74806 | 5430 ft | 172 kts | 351° |
| 2026-04-22 18:46 | 46.07581 | 14.73860 | 5333 ft | 176 kts | 319° |
| 2026-04-22 18:46 | 46.08443 | 14.72586 | 5093 ft | 178 kts | 322° |
| 2026-04-22 18:47 | 46.09275 | 14.71322 | 4833 ft | 173 kts | 315° |
| 2026-04-22 18:47 | 46.09998 | 14.70003 | 4708 ft | 165 kts | 314° |
| 2026-04-22 18:47 | 46.10686 | 14.68659 | 4556 ft | 167 kts | 311° |
| 2026-04-22 18:47 | 46.11362 | 14.67306 | 4362 ft | 165 kts | 312° |
| 2026-04-22 18:48 | 46.12036 | 14.65977 | 4185 ft | 162 kts | 312° |
| 2026-04-22 18:48 | 46.12716 | 14.64649 | 4071 ft | 167 kts | 312° |
| 2026-04-22 18:48 | 46.13406 | 14.63298 | 3871 ft | 165 kts | 311° |
| 2026-04-22 18:48 | 46.14070 | 14.61994 | 3639 ft | 157 kts | 311° |
| 2026-04-22 18:49 | 46.14683 | 14.60791 | 3442 ft | 144 kts | 311° |
| 2026-04-22 18:49 | 46.15258 | 14.59667 | 3276 ft | 136 kts | 311° |
| 2026-04-22 18:49 | 46.15822 | 14.58566 | 3114 ft | 144 kts | 310° |
| 2026-04-22 18:49 | 46.16419 | 14.57403 | 2928 ft | 144 kts | 310° |
| 2026-04-22 18:50 | 46.17013 | 14.56238 | 2723 ft | 146 kts | 308° |
| 2026-04-22 18:50 | 46.17609 | 14.55068 | 2521 ft | 143 kts | 307° |
| 2026-04-22 18:50 | 46.18200 | 14.53911 | 2319 ft | 143 kts | 307° |
| 2026-04-22 18:50 | 46.18793 | 14.52752 | 2137 ft | 144 kts | 307° |
| 2026-04-22 18:51 | 46.19384 | 14.51590 | 1951 ft | 143 kts | 307° |
| 2026-04-22 18:51 | 46.19979 | 14.50435 | 1743 ft | 141 kts | 307° |
| 2026-04-22 18:51 | 46.20544 | 14.49318 | 1565 ft | 136 kts | 306° |
| 2026-04-22 18:51 | 46.21104 | 14.48223 | 1352 ft | 134 kts | 306° |
| 2026-04-22 18:52 | 46.21644 | 14.47179 | 1222 ft | 125 kts | 307° |
| 2026-04-22 18:52 | 46.22110 | 14.46286 | 1232 ft | 98 kts | 304° |
| 2026-04-22 18:52 | 46.22402 | 14.45710 | 1250 ft | 49 kts | 307° |
| 2026-04-22 18:52 | 46.22584 | 14.45440 | 1256 ft | 20 kts | 330° |
| 2026-04-22 18:53 | 46.22659 | 14.45377 | 1257 ft | 13 kts | 334° |
| 2026-04-22 18:53 | 46.22688 | 14.45359 | 1255 ft | 5 kts | 337° |
| 2026-04-22 18:53 | 46.22740 | 14.45335 | 1261 ft | 10 kts | 350° |
| 2026-04-22 18:53 | 46.22821 | 14.45322 | 1259 ft | 7 kts | 334° |
| 2026-04-22 18:54 | 46.22861 | 14.45267 | 1262 ft | 10 kts | 302° |
| 2026-04-22 18:54 | 46.22908 | 14.45170 | 1266 ft | 14 kts | 308° |
| 2026-04-22 18:54 | 46.22997 | 14.45151 | 1266 ft | 18 kts | 35° |
| 2026-04-22 18:54 | 46.23068 | 14.45187 | 1267 ft | 11 kts | 332° |
| 2026-04-22 18:55 | 46.23113 | 14.45097 | 1269 ft | 11 kts | 304° |
| 2026-04-22 18:55 | 46.23154 | 14.45020 | 1267 ft | 0 kts | 305° |
| 2026-04-22 18:55 | 46.23165 | 14.45003 | 1269 ft | 6 kts | 317° |
| 2026-04-22 18:55 | 46.23234 | 14.44966 | 1270 ft | 11 kts | 7° |
| 2026-04-22 18:56 | 46.23280 | 14.45005 | 1270 ft | 3 kts | 35° |
| 2026-04-22 18:56 | 46.23282 | 14.45007 | 1270 ft | 0 kts | 35° |
| 2026-04-22 18:56 | 46.23288 | 14.45012 | 1271 ft | 0 kts | 35° |
| 2026-04-22 18:56 | 46.23289 | 14.45013 | 1271 ft | 0 kts | 35° |